createdAt,value
2022-11-26T00:01:38.933Z,96245.50
2022-11-26T00:04:40.609Z,96238.56
2022-11-26T00:07:44.399Z,96240.91
2022-11-26T00:10:46.625Z,96241.38
2022-11-26T00:13:48.322Z,96254.91
2022-11-26T00:16:51.565Z,96257.56
2022-11-26T00:19:53.275Z,96262.28
2022-11-26T00:22:56.268Z,96270.50
2022-11-26T00:25:59.519Z,96267.72
2022-11-26T00:29:01.308Z,96265.38
2022-11-26T00:32:05.944Z,96268.81
2022-11-26T00:35:08.041Z,96281.88
2022-11-26T00:38:13.099Z,96273.31
2022-11-26T00:41:17.015Z,96273.59
2022-11-26T00:44:19.421Z,96279.75
2022-11-26T00:47:22.405Z,96285.81
2022-11-26T00:50:24.852Z,96292.34
2022-11-26T00:53:26.500Z,96292.81
2022-11-26T00:56:30.789Z,96294.66
2022-11-26T00:59:35.515Z,96306.75
2022-11-26T01:02:38.623Z,96305.63
2022-11-26T01:05:40.336Z,96310.47
2022-11-26T01:08:42.925Z,96303.41
2022-11-26T01:11:44.613Z,96302.69
2022-11-26T01:14:46.367Z,96303.47
2022-11-26T01:17:49.634Z,96303.81
2022-11-26T01:20:51.331Z,96305.56
2022-11-26T01:23:52.934Z,96308.69
2022-11-26T01:26:54.658Z,96311.13
2022-11-26T01:29:56.380Z,96317.72
2022-11-26T01:32:59.579Z,96326.22
2022-11-26T01:36:01.430Z,96331.44
2022-11-26T01:39:04.223Z,96333.19
2022-11-26T01:42:07.242Z,96332.34
2022-11-26T01:45:14.320Z,96338.56
2022-11-26T01:48:28.156Z,96334.97
2022-11-26T01:51:29.759Z,96342.94
2022-11-26T01:54:32.477Z,96336.00
2022-11-26T01:57:34.135Z,96339.63
2022-11-26T02:00:35.926Z,96343.63
2022-11-26T02:03:43.470Z,96352.16
2022-11-26T02:06:46.848Z,96351.06
2022-11-26T02:09:49.003Z,96351.56
2022-11-26T02:12:51.165Z,96351.19
2022-11-26T02:15:57.324Z,96349.34
2022-11-26T02:19:15.336Z,96350.97
2022-11-26T02:22:26.591Z,96350.16
2022-11-26T02:25:35.776Z,96353.63
2022-11-26T02:28:52.565Z,96352.41
2022-11-26T02:31:59.717Z,96346.31
2022-11-26T02:35:03.834Z,96349.25
2022-11-26T02:38:06.826Z,96362.50
2022-11-26T02:41:20.564Z,96363.56
2022-11-26T02:44:23.897Z,96363.06
2022-11-26T02:47:28.470Z,96369.38
2022-11-26T02:50:32.556Z,96360.88
2022-11-26T02:53:34.801Z,96370.03
2022-11-26T02:56:37.252Z,96368.28
2022-11-26T02:59:39.681Z,96378.72
2022-11-26T03:02:45.110Z,96374.59
2022-11-26T03:05:46.899Z,96376.72
2022-11-26T03:08:48.923Z,96385.22
2022-11-26T03:11:50.814Z,96381.13
2022-11-26T03:14:52.578Z,96383.94
2022-11-26T03:17:55.631Z,96387.38
2022-11-26T03:20:57.276Z,96377.47
2022-11-26T03:23:58.950Z,96380.19
2022-11-26T03:27:00.613Z,96389.03
2022-11-26T03:30:02.326Z,96386.19
2022-11-26T03:33:05.409Z,96394.22
2022-11-26T03:36:07.360Z,96396.44
2022-11-26T03:39:09.067Z,96393.72
2022-11-26T03:42:10.714Z,96400.84
2022-11-26T03:45:12.640Z,96413.88
2022-11-26T03:48:15.740Z,96406.00
2022-11-26T03:51:17.472Z,96412.44
2022-11-26T03:54:19.115Z,96408.66
2022-11-26T03:57:20.797Z,96419.88
2022-11-26T04:00:22.498Z,96418.16
2022-11-26T04:03:25.688Z,96420.84
2022-11-26T04:06:27.524Z,96423.66
2022-11-26T04:09:29.222Z,96425.44
2022-11-26T04:12:30.927Z,96424.47
2022-11-26T04:15:32.623Z,96427.47
2022-11-26T04:18:35.703Z,96431.88
2022-11-26T04:21:37.391Z,96428.88
2022-11-26T04:24:39.218Z,96439.72
2022-11-26T04:27:41.113Z,96441.63
2022-11-26T04:30:43.257Z,96449.34
2022-11-26T04:33:46.573Z,96447.63
2022-11-26T04:36:48.229Z,96443.00
2022-11-26T04:39:49.926Z,96442.72
2022-11-26T04:42:51.572Z,96444.44
2022-11-26T04:45:53.344Z,96445.41
2022-11-26T04:48:56.473Z,96444.59
2022-11-26T04:51:58.189Z,96449.94
2022-11-26T04:54:59.882Z,96445.53
2022-11-26T04:58:01.897Z,96456.34
2022-11-26T05:01:03.641Z,96455.91
2022-11-26T05:04:06.790Z,96457.00
2022-11-26T05:07:08.539Z,96468.38
2022-11-26T05:10:10.797Z,96469.63
2022-11-26T05:13:12.436Z,96463.31
2022-11-26T05:16:14.178Z,96461.09
2022-11-26T05:19:17.628Z,96467.88
2022-11-26T05:22:19.284Z,96478.56
2022-11-26T05:25:20.947Z,96483.28
2022-11-26T05:28:22.615Z,96490.06
2022-11-26T05:31:24.687Z,96488.31
2022-11-26T05:34:27.807Z,96489.75
2022-11-26T05:37:29.548Z,96499.19
2022-11-26T05:40:31.262Z,96494.31
2022-11-26T05:43:34.430Z,96493.88
2022-11-26T05:46:36.771Z,96504.59
2022-11-26T05:49:40.168Z,96507.91
2022-11-26T05:52:41.920Z,96514.06
2022-11-26T05:55:43.602Z,96521.16
2022-11-26T05:58:45.237Z,96529.81
2022-11-26T06:01:46.986Z,96535.03
2022-11-26T06:04:50.145Z,96532.66
2022-11-26T06:07:51.909Z,96533.47
2022-11-26T06:10:53.738Z,96524.34
2022-11-26T06:13:55.443Z,96525.78
2022-11-26T06:16:57.328Z,96527.66
2022-11-26T06:20:00.506Z,96532.38
2022-11-26T06:23:02.207Z,96538.84
2022-11-26T06:26:06.955Z,96544.03
2022-11-26T06:29:08.669Z,96541.31
2022-11-26T06:32:10.429Z,96549.97
2022-11-26T06:35:13.572Z,96557.72
2022-11-26T06:38:15.249Z,96555.03
2022-11-26T06:41:16.944Z,96557.53
2022-11-26T06:44:18.600Z,96569.38
2022-11-26T06:47:20.248Z,96564.47
2022-11-26T06:50:23.623Z,96570.31
2022-11-26T06:53:25.319Z,96570.59
2022-11-26T06:56:27.062Z,96578.00
2022-11-26T06:59:28.819Z,96581.16
2022-11-26T07:02:30.604Z,96582.75
2022-11-26T07:05:35.204Z,96588.09
2022-11-26T07:08:37.993Z,96589.97
2022-11-26T07:11:40.459Z,96593.75
2022-11-26T07:14:42.713Z,96596.56
2022-11-26T07:17:44.422Z,96597.38
2022-11-26T07:20:47.521Z,96599.09
2022-11-26T07:23:49.937Z,96595.63
2022-11-26T07:26:51.677Z,96603.50
2022-11-26T07:29:53.381Z,96600.34
2022-11-26T07:32:55.072Z,96606.00
2022-11-26T07:36:00.044Z,96601.41
2022-11-26T07:39:02.135Z,96603.03
2022-11-26T07:42:03.991Z,96612.63
2022-11-26T07:45:06.219Z,96617.00
2022-11-26T07:48:09.512Z,96615.59
2022-11-26T07:51:17.470Z,96614.38
2022-11-26T07:54:19.189Z,96622.84
2022-11-26T07:57:20.936Z,96618.28
2022-11-26T08:00:22.806Z,96620.03
2022-11-26T08:03:24.467Z,96624.94
2022-11-26T08:06:28.570Z,96621.59
2022-11-26T08:09:30.415Z,96627.00
2022-11-26T08:12:32.218Z,96622.88
2022-11-26T08:15:33.813Z,96622.84
2022-11-26T08:18:35.700Z,96633.25
2022-11-26T08:21:38.739Z,96632.00
2022-11-26T08:24:40.653Z,96637.53
2022-11-26T08:27:42.388Z,96636.91
2022-11-26T08:30:44.365Z,96636.56
2022-11-26T08:33:46.273Z,96632.47
2022-11-26T08:36:49.304Z,96638.44
2022-11-26T08:39:50.948Z,96649.00
2022-11-26T08:42:52.593Z,96649.81
2022-11-26T08:45:54.534Z,96660.34
2022-11-26T08:48:56.386Z,96653.28
2022-11-26T08:51:59.417Z,96660.09
2022-11-26T08:55:01.015Z,96646.84
2022-11-26T08:58:02.723Z,96648.72
2022-11-26T09:01:07.802Z,96654.06
2022-11-26T09:04:09.516Z,96657.22
2022-11-26T09:07:12.840Z,96663.84
2022-11-26T09:10:14.841Z,96671.88
2022-11-26T09:13:20.929Z,96672.69
2022-11-26T09:16:22.996Z,96670.47
2022-11-26T09:19:25.185Z,96677.25
2022-11-26T09:22:28.202Z,96673.13
2022-11-26T09:25:29.947Z,96677.06
2022-11-26T09:28:31.568Z,96682.88
2022-11-26T09:31:33.311Z,96678.78
2022-11-26T09:34:35.051Z,96683.81
2022-11-26T09:37:38.114Z,96679.41
2022-11-26T09:40:46.511Z,96688.53
2022-11-26T09:43:56.931Z,96684.94
2022-11-26T09:47:12.541Z,96690.44
2022-11-26T09:50:21.010Z,96690.44
2022-11-26T09:53:25.821Z,96690.13
2022-11-26T09:56:27.468Z,96692.47
2022-11-26T09:59:29.682Z,96691.84
2022-11-26T10:02:31.434Z,96683.63
2022-11-26T10:05:44.467Z,96677.63
2022-11-26T10:09:06.980Z,96685.66
2022-11-26T10:12:25.004Z,96679.97
2022-11-26T10:15:31.285Z,96679.97
2022-11-26T10:18:37.451Z,96683.25
2022-11-26T10:25:03.787Z,96679.78
2022-11-26T10:28:16.448Z,96673.78
2022-11-26T10:31:20.255Z,96678.78
2022-11-26T10:34:28.362Z,96677.81
2022-11-26T10:37:31.063Z,96672.94
2022-11-26T10:40:33.045Z,96669.88
2022-11-26T10:43:36.060Z,96676.75
2022-11-26T10:46:37.914Z,96680.88
2022-11-26T10:49:39.558Z,96682.13
2022-11-26T10:52:41.330Z,96680.06
2022-11-26T10:55:43.540Z,96685.09
2022-11-26T10:58:47.968Z,96680.25
2022-11-26T11:01:51.625Z,96683.25
2022-11-26T11:04:57.464Z,96687.88
2022-11-26T11:07:59.168Z,96690.69
2022-11-26T11:11:01.802Z,96690.41
2022-11-26T11:14:04.819Z,96691.38
2022-11-26T11:17:06.928Z,96691.09
2022-11-26T11:20:25.792Z,96695.66
2022-11-26T11:23:46.082Z,96693.50
2022-11-26T11:26:51.408Z,96692.84
2022-11-26T11:29:59.664Z,96683.25
2022-11-26T11:33:10.285Z,96687.81
2022-11-26T11:36:29.546Z,96688.19
2022-11-26T11:39:32.886Z,96689.31
2022-11-26T11:42:34.523Z,96695.16
2022-11-26T11:45:40.649Z,96684.72
2022-11-26T11:48:48.441Z,96688.34
2022-11-26T11:51:58.207Z,96679.69
2022-11-26T11:55:03.915Z,96682.84
2022-11-26T11:58:15.144Z,96676.53
2022-11-26T12:01:25.298Z,96678.06
2022-11-26T12:04:39.792Z,96677.47
2022-11-26T12:07:46.278Z,96686.84
2022-11-26T12:10:53.131Z,96687.72
2022-11-26T12:13:56.041Z,96687.38
2022-11-26T12:17:03.264Z,96680.38
2022-11-26T12:20:07.631Z,96678.84
2022-11-26T12:23:23.011Z,96687.47
2022-11-26T12:26:28.606Z,96686.66
2022-11-26T12:29:34.114Z,96678.09
2022-11-26T12:32:40.989Z,96677.22
2022-11-26T12:35:45.033Z,96680.00
2022-11-26T12:38:51.183Z,96679.66
2022-11-26T12:41:55.194Z,96666.38
2022-11-26T12:45:02.295Z,96672.13
2022-11-26T12:48:10.511Z,96673.97
2022-11-26T12:51:20.084Z,96674.31
2022-11-26T12:54:24.827Z,96669.91
2022-11-26T12:57:29.960Z,96678.09
2022-11-26T13:00:36.031Z,96672.47
2022-11-26T13:03:40.972Z,96681.50
2022-11-26T13:07:00.414Z,96675.19
2022-11-26T13:10:10.127Z,96674.09
2022-11-26T13:13:17.763Z,96666.88
2022-11-26T13:16:23.540Z,96666.22
2022-11-26T13:19:31.080Z,96673.63
2022-11-26T13:22:45.847Z,96673.47
2022-11-26T13:26:05.364Z,96670.66
2022-11-26T13:29:24.160Z,96678.84
2022-11-26T13:32:40.693Z,96673.03
2022-11-26T13:36:00.086Z,96678.56
2022-11-26T13:39:11.629Z,96681.25
2022-11-26T13:42:29.138Z,96678.22
2022-11-26T13:45:54.780Z,96682.59
2022-11-26T13:48:59.493Z,96681.22
2022-11-26T13:52:04.249Z,96687.97
2022-11-26T13:55:11.098Z,96691.22
2022-11-26T13:58:16.493Z,96687.25
2022-11-26T14:01:28.401Z,96693.91
2022-11-26T14:04:48.726Z,96687.88
2022-11-26T14:07:50.526Z,96694.38
2022-11-26T14:10:53.651Z,96695.63
2022-11-26T14:14:28.736Z,96696.94
2022-11-26T14:17:35.081Z,96688.38
2022-11-26T14:20:51.788Z,96692.25
2022-11-26T14:23:54.483Z,96694.03
2022-11-26T14:26:57.603Z,96695.09
2022-11-26T14:30:01.287Z,96695.59
2022-11-26T14:33:10.437Z,96692.44
2022-11-26T14:36:19.284Z,96699.25
2022-11-26T14:39:21.051Z,96701.47
2022-11-26T14:42:24.148Z,96705.38
2022-11-26T14:45:26.143Z,96705.59
2022-11-26T14:48:28.682Z,96708.09
2022-11-26T14:51:31.827Z,96707.34
2022-11-26T14:54:35.136Z,96708.63
2022-11-26T14:57:42.429Z,96722.47
2022-11-26T15:00:44.336Z,96718.59
2022-11-26T15:03:53.490Z,96725.53
2022-11-26T15:06:55.298Z,96727.06
2022-11-26T15:10:00.549Z,96725.97
2022-11-26T15:13:06.139Z,96722.38
2022-11-26T15:16:25.430Z,96722.66
2022-11-26T15:19:27.805Z,96723.19
2022-11-26T15:22:33.586Z,96728.38
2022-11-26T15:25:35.522Z,96726.81
2022-11-26T15:28:39.007Z,96720.75
2022-11-26T15:31:41.187Z,96730.09
2022-11-26T15:34:42.938Z,96729.63
2022-11-26T15:37:44.540Z,96732.94
2022-11-26T15:40:47.550Z,96729.97
2022-11-26T15:43:52.305Z,96735.47
2022-11-26T15:46:55.705Z,96730.91
2022-11-26T15:49:59.439Z,96732.16
2022-11-26T15:53:04.200Z,96735.66
2022-11-26T15:56:08.321Z,96744.94
2022-11-26T15:59:15.348Z,96745.09
2022-11-26T16:02:18.913Z,96745.28
2022-11-26T16:05:26.602Z,96747.81
2022-11-26T16:08:30.345Z,96749.22
2022-11-26T16:11:32.632Z,96743.38
2022-11-26T16:14:37.158Z,96751.41
2022-11-26T16:17:39.356Z,96741.66
2022-11-26T16:20:41.051Z,96743.22
2022-11-26T16:23:42.790Z,96740.38
2022-11-26T16:26:54.752Z,96746.22
2022-11-26T16:29:58.631Z,96737.38
2022-11-26T16:33:00.377Z,96738.53
2022-11-26T16:36:05.765Z,96739.72
2022-11-26T16:39:08.742Z,96736.75
2022-11-26T16:42:14.099Z,96740.22
2022-11-26T16:45:17.835Z,96743.19
2022-11-26T16:48:23.125Z,96733.13
2022-11-26T16:51:25.072Z,96733.13
2022-11-26T16:54:26.810Z,96737.66
2022-11-26T16:57:29.434Z,96738.28
2022-11-26T17:00:34.906Z,96736.41
2022-11-26T17:03:36.805Z,96740.19
2022-11-26T17:06:39.201Z,96743.34
2022-11-26T17:09:41.343Z,96751.22
2022-11-26T17:12:44.002Z,96752.50
2022-11-26T17:15:47.435Z,96764.63
2022-11-26T17:18:49.773Z,96762.75
2022-11-26T17:21:51.783Z,96766.25
2022-11-26T17:24:53.632Z,96771.91
2022-11-26T17:27:55.614Z,96766.59
2022-11-26T17:30:58.612Z,96763.09
2022-11-26T17:34:00.656Z,96762.94
2022-11-26T17:37:03.057Z,96757.75
2022-11-26T17:40:07.062Z,96763.59
2022-11-26T17:43:09.032Z,96758.84
2022-11-26T17:46:18.738Z,96759.31
2022-11-26T17:49:20.615Z,96760.13
2022-11-26T17:52:22.489Z,96763.56
2022-11-26T17:55:24.876Z,96761.22
2022-11-26T17:58:26.553Z,96758.22
2022-11-26T18:01:30.079Z,96758.69
2022-11-26T18:04:32.195Z,96751.13
2022-11-26T18:07:34.534Z,96765.00
2022-11-26T18:10:39.167Z,96762.16
2022-11-26T18:13:41.520Z,96757.44
2022-11-26T18:16:45.376Z,96757.91
2022-11-26T18:19:47.609Z,96764.06
2022-11-26T18:22:50.775Z,96765.97
2022-11-26T18:25:52.731Z,96759.00
2022-11-26T18:28:54.474Z,96758.25
2022-11-26T18:31:58.494Z,96758.25
2022-11-26T18:35:00.642Z,96756.81
2022-11-26T18:38:07.341Z,96754.28
2022-11-26T18:41:09.551Z,96753.50
2022-11-26T18:44:11.656Z,96755.22
2022-11-26T18:47:15.269Z,96747.66
2022-11-26T18:50:17.549Z,96750.81
2022-11-26T18:53:19.794Z,96747.19
2022-11-26T18:56:22.694Z,96754.47
2022-11-26T18:59:25.027Z,96750.97
2022-11-26T19:02:28.919Z,96763.94
2022-11-26T19:05:31.127Z,96760.16
2022-11-26T19:08:33.398Z,96771.00
2022-11-26T19:11:35.754Z,96770.38
2022-11-26T19:14:38.126Z,96776.56
2022-11-26T19:17:42.467Z,96775.75
2022-11-26T19:20:48.430Z,96786.31
2022-11-26T19:23:50.507Z,96789.28
2022-11-26T19:26:52.811Z,96790.38
2022-11-26T19:29:55.145Z,96796.03
2022-11-26T19:32:58.672Z,96792.03
2022-11-26T19:36:04.058Z,96785.75
2022-11-26T19:39:07.127Z,96791.84
2022-11-26T19:42:10.078Z,96788.56
2022-11-26T19:45:13.935Z,96796.59
2022-11-26T19:48:19.293Z,96800.25
2022-11-26T19:51:22.489Z,96795.06
2022-11-26T19:54:24.850Z,96802.31
2022-11-26T19:57:27.114Z,96802.16
2022-11-26T20:00:29.381Z,96805.03
2022-11-26T20:03:37.410Z,96802.97
2022-11-26T20:06:39.927Z,96789.41
2022-11-26T20:09:42.191Z,96785.81
2022-11-26T20:12:44.592Z,96797.72
2022-11-26T20:15:46.600Z,96798.66
2022-11-26T20:18:50.787Z,96792.16
2022-11-26T20:21:52.993Z,96792.50
2022-11-26T20:24:55.238Z,96788.56
2022-11-26T20:27:57.863Z,96786.97
2022-11-26T20:30:59.966Z,96789.47
2022-11-26T20:34:05.548Z,96789.44
2022-11-26T20:37:07.971Z,96785.22
2022-11-26T20:40:10.579Z,96790.38
2022-11-26T20:43:22.732Z,96785.19
2022-11-26T20:46:25.733Z,96777.47
2022-11-26T20:49:34.002Z,96775.56
2022-11-26T20:52:37.392Z,96773.88
2022-11-26T20:55:39.890Z,96761.22
2022-11-26T20:58:42.284Z,96767.03
2022-11-26T21:01:44.792Z,96771.63
2022-11-26T21:04:49.281Z,96764.66
2022-11-26T21:07:51.494Z,96766.06
2022-11-26T21:10:53.238Z,96761.44
2022-11-26T21:13:55.381Z,96760.97
2022-11-26T21:16:57.158Z,96764.25
2022-11-26T21:20:00.674Z,96756.22
2022-11-26T21:23:02.415Z,96760.47
2022-11-26T21:26:05.683Z,96759.38
2022-11-26T21:29:07.293Z,96761.22
2022-11-26T21:32:09.177Z,96754.97
2022-11-26T21:35:13.000Z,96759.81
2022-11-26T21:38:14.703Z,96752.63
2022-11-26T21:41:17.739Z,96750.25
2022-11-26T21:44:19.613Z,96740.19
2022-11-26T21:47:21.252Z,96746.94
2022-11-26T21:50:24.443Z,96744.38
2022-11-26T21:53:26.388Z,96744.13
2022-11-26T21:56:28.934Z,96748.81
2022-11-26T21:59:30.536Z,96749.84
2022-11-26T22:02:32.201Z,96749.22
2022-11-26T22:05:35.261Z,96746.25
2022-11-26T22:08:36.963Z,96749.09
2022-11-26T22:11:39.545Z,96748.69
2022-11-26T22:14:41.197Z,96748.22
2022-11-26T22:17:42.816Z,96754.59
2022-11-26T22:20:51.127Z,96753.63
2022-11-26T22:23:53.344Z,96747.81
2022-11-26T22:26:54.975Z,96745.06
2022-11-26T22:29:56.617Z,96741.91
2022-11-26T22:32:58.185Z,96738.84
2022-11-26T22:36:01.834Z,96741.59
2022-11-26T22:39:04.497Z,96749.00
2022-11-26T22:42:06.151Z,96743.38
2022-11-26T22:45:08.389Z,96739.31
2022-11-26T22:48:11.274Z,96731.44
2022-11-26T22:51:14.341Z,96740.16
2022-11-26T22:54:16.460Z,96731.38
2022-11-26T22:57:23.814Z,96741.25
2022-11-26T23:00:49.530Z,96737.81
2022-11-26T23:03:51.815Z,96738.91
2022-11-26T23:06:54.841Z,96739.13
2022-11-26T23:09:56.504Z,96738.31
2022-11-26T23:12:58.175Z,96732.34
2022-11-26T23:15:59.857Z,96738.16
2022-11-26T23:19:01.878Z,96735.75
2022-11-26T23:22:04.913Z,96749.47
2022-11-26T23:25:07.274Z,96740.16
2022-11-26T23:28:09.207Z,96740.44
2022-11-26T23:31:13.024Z,96740.00
2022-11-26T23:34:14.928Z,96744.00
2022-11-26T23:37:17.914Z,96735.75
2022-11-26T23:40:19.553Z,96733.75
2022-11-26T23:43:21.356Z,96733.81
2022-11-26T23:46:24.220Z,96729.88
2022-11-26T23:49:25.907Z,96731.75
2022-11-26T23:52:28.886Z,96727.25
2022-11-26T23:55:30.555Z,96717.13
2022-11-26T23:58:32.196Z,96718.25
